Metar Report
Metar
METAR KVGC 240256Z AUTO 17018G24KT 10SM OVC033 19/13 A2989 A02 5271
METAR KVGC 240156Z AUTO 17013G21KT 10SM SCT033 19/13 A2991 A02 5270
METAR KVGC 240056Z AUTO 17012G19KT 10SM BKN031 BKN038 19/13 A2992 A02 5269
METAR KVGC 232356Z AUTO 16011G19KT 10SM OVC031 19/13 A2996 A02 5268
METAR KVGC 232256Z AUTO 18008KT 10SM SCT031 18/13 A2999 A02 5267
METAR KVGC 232156Z AUTO 17011G21KT 10SM BKN031 OVC038 19/13 A3001 A02 5266
METAR KVGC 232056Z AUTO 18011G18KT 10SM SCT032 SCT041 OVC048 19/12 A3002 A02 5265
METAR KVGC 231956Z AUTO 19009G19KT 10SM OVC043 20/12 A3005 A02 5264
METAR KVGC 231856Z AUTO 18011G21KT 10SM CLR 19/12 A3008 A02 5263
METAR KVGC 231756Z AUTO 18009G17KT 10SM BKN029 OVC036 19/12 A3011 A02 5262
METAR KVGC 231656Z AUTO 20012G20KT 150V220 10SM OVC029 19/12 A3014 A02 5261
METAR KVGC 231556Z AUTO 18014G19KT 160V230 10SM OVC025 18/12 A3016 A02 5260
METAR KVGC 231456Z AUTO 17011G16KT 10SM OVC016 16/11 A3019 A02 5259
METAR KVGC 231356Z AUTO 16006KT 10SM OVC016 14/10 A3022 A02 5258
METAR KVGC 231256Z AUTO 17008KT 10SM OVC016 13/09 A3024 A02 5257
METAR KVGC 231156Z AUTO 17009KT 10SM CLR 12/07 A3023 A02 5256
METAR KVGC 231056Z AUTO 18009KT 10SM CLR 12/06 A3024 A02 5255
METAR KVGC 230956Z AUTO 16010G15KT 10SM CLR 12/04 A3024 A02 5254
METAR KVGC 230856Z AUTO 16007KT 10SM CLR 12/04 A3024 A02 5253
METAR KVGC 230756Z AUTO 18006KT 10SM CLR 14/04 A3025 A02 5252
METAR KVGC 230656Z AUTO 18008KT 10SM CLR 14/06 A3025 A02 5251
METAR KVGC 230556Z AUTO 17011G15KT 10SM CLR 14/06 A3026 A02 5250
METAR KVGC 230456Z AUTO 18010KT 10SM CLR 16/05 A3028 A02 5249
METAR KVGC 230356Z AUTO 18010G15KT 10SM CLR 16/05 A3029 A02 5248
METAR KVGC 230256Z AUTO 17009G16KT 10SM CLR 16/05 A3030 A02 5247
METAR KVGC 230156Z AUTO 17010G15KT 10SM CLR 17/05 A3030 A02 5246
METAR KVGC 230056Z AUTO 17009KT 10SM CLR 17/05 A3028 A02 5245
METAR KVGC 222356Z AUTO 14005KT 10SM CLR 16/06 A3028 A02 5244
METAR KVGC 222256Z AUTO 12004KT 10SM CLR 15/07 A3027 A02 5243
METAR KVGC 222156Z AUTO 17004KT 10SM CLR 19/06 A3028 A02 5242
METAR KVGC 222056Z AUTO 00000KT 10SM CLR 21/04 A3029 A02 5241
METAR KVGC 221956Z AUTO 19003KT 10SM CLR 22/06 A3029 A02 5240
METAR KVGC 221856Z AUTO 18007KT 10SM CLR 23/06 A3030 A02 5239
METAR KVGC 221756Z AUTO 16008KT 10SM CLR 22/06 A3032 A02 5238
METAR KVGC 221656Z AUTO 17008KT 10SM CLR 21/06 A3032 A02 5237
METAR KVGC 221556Z AUTO 16008KT 10SM CLR 19/06 A3034 A02 5236
METAR KVGC 221456Z AUTO 17010KT 10SM CLR 19/06 A3035 A02 5235
METAR KVGC 221356Z AUTO 14006KT 10SM CLR 16/06 A3036 A02 5234
METAR KVGC 221256Z AUTO 13005KT 7SM CLR 11/04 A3037 A02 5233
METAR KVGC 221156Z AUTO 14003KT 10SM CLR 06/03 A3037 A02 5232
METAR KVGC 221056Z AUTO 00000KT 7SM CLR 04/02 A3037 A02 5231
METAR KVGC 220956Z AUTO 00000KT 10SM CLR 03/02 A3036 A02 5230
METAR KVGC 220856Z AUTO 00000KT 10SM CLR 04/03 A3035 A02 5229
METAR KVGC 220756Z AUTO 00000KT 10SM CLR 05/03 A3034 A02 5228
METAR KVGC 220656Z AUTO 00000KT 10SM CLR 04/03 A3034 A02 5227
METAR KVGC 220556Z AUTO 00000KT 10SM CLR 04/03 A3034 A02 5226
METAR KVGC 220456Z AUTO 00000KT 10SM CLR 04/03 A3034 A02 5225
METAR KVGC 220356Z AUTO 00000KT 10SM CLR 05/03 A3034 A02 5224
METAR KVGC 220256Z AUTO 16003KT 7SM CLR 06/04 A3034 A02 5223
METAR KVGC 220156Z AUTO 00000KT 10SM CLR 06/04 A3034 A02 5222
METAR KVGC 220056Z AUTO 00000KT 10SM CLR 08/05 A3033 A02 5221
METAR KVGC 212356Z AUTO 00000KT 10SM CLR 10/06 A3032 A02 5220
METAR KVGC 212256Z AUTO 00000KT 10SM CLR 13/07 A3031 A02 5219
METAR KVGC 212156Z AUTO 00000KT 10SM CLR 16/09 A3031 A02 5218
METAR KVGC 212056Z AUTO 00000KT 10SM CLR 22/03 A3030 A02 5217
METAR KVGC 211956Z AUTO 21003KT 10SM CLR 23/02 A3029 A02 5216
METAR KVGC 211856Z AUTO 19004KT 10SM CLR 24/02 A3030 A02 5215
METAR KVGC 211756Z AUTO 19004KT 10SM CLR 23/02 A3030 A02 5214
METAR KVGC 211656Z AUTO 12006KT 10SM CLR 23/04 A3031 A02 5213
METAR KVGC 211556Z AUTO 14004KT 10SM CLR 19/05 A3033 A02 5212
METAR KVGC 211456Z AUTO 14005KT 10SM CLR 15/04 A3034 A02 5211
METAR KVGC 211356Z AUTO 15004KT 10SM CLR 11/04 A3034 A02 5210
METAR KVGC 211256Z AUTO 00000KT 10SM CLR 05/02 A3034 A02 5209
METAR KVGC 211156Z AUTO 14003KT 7SM CLR 02/01 A3033 A02 5208
METAR KVGC 211056Z AUTO 14003KT 7SM CLR 01/00 A3032 A02 5207
METAR KVGC 210956Z AUTO 13003KT 7SM CLR 02/01 A3030 A02 5206
METAR KVGC 210856Z AUTO 14003KT 10SM CLR 02/01 A3028 A02 5205
METAR KVGC 210756Z AUTO 00000KT 10SM CLR 02/01 A3027 A02 5204
METAR KVGC 210656Z AUTO 00000KT 7SM CLR 03/01 A3027 A02 5203
METAR KVGC 210556Z AUTO 00000KT 10SM CLR 02/01 A3027 A02 5202
METAR KVGC 210456Z AUTO 00000KT 10SM CLR 03/01 A3026 A02 5201
METAR KVGC 210356Z AUTO 15003KT 10SM CLR 03/02 A3024 A02 5200
METAR KVGC 210256Z AUTO 00000KT 10SM CLR 04/02 A3023 A02 5199
METAR KVGC 210156Z AUTO 00000KT 10SM CLR 04/02 A3022 A02 5198
METAR KVGC 210056Z AUTO 00000KT 7SM CLR 06/03 A3022 A02 5197
METAR KVGC 202356Z AUTO 00000KT 10SM CLR 07/03 A3021 A02 5196
METAR KVGC 202256Z AUTO 00000KT 10SM CLR 10/03 A3020 A02 5195
METAR KVGC 202156Z AUTO 00000KT 10SM CLR 14/01 A3019 A02 5194
METAR KVGC 202056Z AUTO 34006KT 10SM CLR 17/M01 A3019 A02 5193
METAR KVGC 201956Z AUTO 32007KT 280V340 10SM CLR 18/00 A3019 A02 5192
METAR KVGC 201856Z AUTO 35009G15KT 10SM CLR 18/M02 A3019 A02 5191
METAR KVGC 201756Z AUTO 35010G16KT 10SM CLR 17/M01 A3020 A02 5190
METAR KVGC 201656Z AUTO 35009G18KT 10SM CLR 16/01 A3021 A02 5189
METAR KVGC 201556Z AUTO 34011G20KT 10SM CLR 15/02 A3022 A02 5188
METAR KVGC 201456Z AUTO 32008G16KT 300V360 10SM CLR 14/03 A3022 A02 5187
METAR KVGC 201356Z AUTO 32004G15KT 10SM CLR 13/04 A3021 A02 5186
METAR KVGC 201256Z AUTO 32004KT 10SM CLR 10/04 A3020 A02 5185
METAR KVGC 201156Z AUTO 15003KT 7SM CLR 03/02 A3018 A02 5184
METAR KVGC 201056Z AUTO 00000KT 7SM CLR 03/02 A3016 A02 5183
METAR KVGC 200956Z AUTO 16003KT 10SM CLR 04/02 A3014 A02 5182
METAR KVGC 200856Z AUTO 17003KT 10SM CLR 06/02 A3013 A02 5181
METAR KVGC 200756Z AUTO 00000KT 10SM CLR 09/02 A3012 A02 5180
METAR KVGC 200656Z AUTO 26003KT 10SM CLR 11/03 A3011 A02 5179
METAR KVGC 200556Z AUTO 31004KT 10SM CLR 12/04 A3011 A02 5178
METAR KVGC 200456Z AUTO 00000KT 10SM CLR 12/07 A3009 A02 5177
METAR KVGC 200356Z AUTO 00000KT 10SM CLR 14/07 A3008 A02 5176
METAR KVGC 200256Z AUTO 30004KT 10SM CLR 15/08 A3007 A02 5175
METAR KVGC 200156Z AUTO 32005KT 10SM SCT060 16/07 A3007 A02 5174
METAR KVGC 200056Z AUTO 00000KT 10SM CLR 11/07 A3005 A02 5173
METAR KVGC 192356Z AUTO 00000KT 10SM SCT065 13/06 A3003 A02 5172
METAR KVGC 192256Z AUTO 00000KT 10SM SCT065 14/06 A3002 A02 5171
METAR KVGC 192156Z AUTO 00000KT 10SM CLR 19/03 A3001 A02 5170
METAR KVGC 192056Z AUTO 23008KT 10SM CLR 21/03 A2999 A02 5169
METAR KVGC 191956Z AUTO 22008KT 10SM CLR 22/03 A3001 A02 5168
METAR KVGC 191856Z AUTO 21006KT 180V250 10SM CLR 21/04 A3002 A02 5167
METAR KVGC 191756Z AUTO 20007G14KT 7SM CLR 21/04 A3006 A02 5166
METAR KVGC 191656Z AUTO 22009G17KT 190V250 10SM CLR 19/04 A3009 A02 5165
METAR KVGC 191556Z AUTO 22009G19KT 190V250 10SM CLR 18/04 A3011 A02 5164
METAR KVGC 191456Z AUTO 24007KT 210V270 10SM CLR 17/05 A3012 A02 5163
METAR KVGC 191356Z AUTO 22009G14KT 180V250 10SM CLR 15/04 A3015 A02 5162
METAR KVGC 191256Z AUTO 16004KT 10SM CLR 11/06 A3016 A02 5161
METAR KVGC 191156Z AUTO 15005KT 10SM CLR 07/04 A3016 A02 5160
METAR KVGC 191056Z AUTO 15007KT 10SM CLR 07/04 A3016 A02 5159
METAR KVGC 190956Z AUTO 14006KT 10SM CLR 07/04 A3017 A02 5158
METAR KVGC 190856Z AUTO 14004KT 10SM CLR 08/04 A3018 A02 5157
METAR KVGC 190756Z AUTO 16006KT 10SM CLR 08/05 A3018 A02 5156
METAR KVGC 190656Z AUTO 14005KT 10SM CLR 08/05 A3019 A02 5155
METAR KVGC 190556Z AUTO 00000KT 10SM CLR 06/04 A3020 A02 5154
METAR KVGC 190456Z AUTO 12003KT 10SM CLR 08/05 A3021 A02 5153
METAR KVGC 190356Z AUTO 15003KT 10SM CLR 09/06 A3022 A02 5152
METAR KVGC 190256Z AUTO 14003KT 10SM CLR 07/05 A3022 A02 5151